sensor_id;sensor_type;location;lat;lon;timestamp;P1;durP1;ratioP1;P2;durP2;ratioP2
70927;SDS011;58587;53.034;18.576;2023-09-30T00:02:04;22.20;;;13.50;;
70927;SDS011;58587;53.034;18.576;2023-09-30T00:04:30;19.00;;;13.53;;
70927;SDS011;58587;53.034;18.576;2023-09-30T00:06:55;18.48;;;12.90;;
70927;SDS011;58587;53.034;18.576;2023-09-30T00:09:21;19.70;;;12.10;;
70927;SDS011;58587;53.034;18.576;2023-09-30T00:11:46;18.07;;;13.03;;
70927;SDS011;58587;53.034;18.576;2023-09-30T00:14:12;21.63;;;13.13;;
70927;SDS011;58587;53.034;18.576;2023-09-30T00:16:37;19.03;;;12.63;;
70927;SDS011;58587;53.034;18.576;2023-09-30T00:19:03;19.57;;;12.77;;
70927;SDS011;58587;53.034;18.576;2023-09-30T00:21:28;18.47;;;13.20;;
70927;SDS011;58587;53.034;18.576;2023-09-30T00:23:54;20.90;;;12.85;;
70927;SDS011;58587;53.034;18.576;2023-09-30T00:26:19;18.67;;;12.27;;
70927;SDS011;58587;53.034;18.576;2023-09-30T00:28:47;19.45;;;12.38;;
70927;SDS011;58587;53.034;18.576;2023-09-30T00:31:12;19.43;;;11.73;;
70927;SDS011;58587;53.034;18.576;2023-09-30T00:33:38;18.20;;;11.90;;
70927;SDS011;58587;53.034;18.576;2023-09-30T00:36:07;19.70;;;12.00;;
70927;SDS011;58587;53.034;18.576;2023-09-30T00:38:33;18.80;;;11.90;;
70927;SDS011;58587;53.034;18.576;2023-09-30T00:40:59;16.57;;;11.80;;
70927;SDS011;58587;53.034;18.576;2023-09-30T00:43:25;21.73;;;12.87;;
70927;SDS011;58587;53.034;18.576;2023-09-30T00:46:02;23.33;;;12.93;;
70927;SDS011;58587;53.034;18.576;2023-09-30T00:48:32;19.17;;;12.00;;
70927;SDS011;58587;53.034;18.576;2023-09-30T00:50:58;19.05;;;12.48;;
70927;SDS011;58587;53.034;18.576;2023-09-30T00:53:24;19.30;;;12.57;;
70927;SDS011;58587;53.034;18.576;2023-09-30T00:55:50;17.80;;;12.60;;
70927;SDS011;58587;53.034;18.576;2023-09-30T00:58:17;16.67;;;11.65;;
70927;SDS011;58587;53.034;18.576;2023-09-30T01:00:42;17.17;;;11.73;;
70927;SDS011;58587;53.034;18.576;2023-09-30T01:03:08;16.63;;;11.93;;
70927;SDS011;58587;53.034;18.576;2023-09-30T01:05:34;16.60;;;11.37;;
70927;SDS011;58587;53.034;18.576;2023-09-30T01:08:01;16.60;;;11.30;;
70927;SDS011;58587;53.034;18.576;2023-09-30T01:10:27;15.53;;;11.13;;
70927;SDS011;58587;53.034;18.576;2023-09-30T01:12:53;16.08;;;11.55;;
70927;SDS011;58587;53.034;18.576;2023-09-30T01:15:18;17.77;;;11.53;;
70927;SDS011;58587;53.034;18.576;2023-09-30T01:17:44;17.23;;;11.37;;
70927;SDS011;58587;53.034;18.576;2023-09-30T01:20:09;15.43;;;11.10;;
70927;SDS011;58587;53.034;18.576;2023-09-30T01:22:35;16.40;;;11.13;;
70927;SDS011;58587;53.034;18.576;2023-09-30T01:25:01;14.30;;;10.83;;
70927;SDS011;58587;53.034;18.576;2023-09-30T01:27:26;16.03;;;11.63;;
70927;SDS011;58587;53.034;18.576;2023-09-30T01:29:52;18.38;;;11.52;;
70927;SDS011;58587;53.034;18.576;2023-09-30T01:32:17;19.90;;;13.70;;
70927;SDS011;58587;53.034;18.576;2023-09-30T01:34:42;20.13;;;13.57;;
70927;SDS011;58587;53.034;18.576;2023-09-30T01:37:08;19.83;;;12.57;;
70927;SDS011;58587;53.034;18.576;2023-09-30T01:39:33;19.30;;;13.13;;
70927;SDS011;58587;53.034;18.576;2023-09-30T01:41:59;18.98;;;12.60;;
70927;SDS011;58587;53.034;18.576;2023-09-30T01:44:24;18.33;;;12.43;;
70927;SDS011;58587;53.034;18.576;2023-09-30T01:46:50;20.20;;;12.40;;
70927;SDS011;58587;53.034;18.576;2023-09-30T01:49:16;17.70;;;12.07;;
70927;SDS011;58587;53.034;18.576;2023-09-30T01:51:43;21.10;;;12.32;;
70927;SDS011;58587;53.034;18.576;2023-09-30T01:54:08;17.40;;;11.90;;
70927;SDS011;58587;53.034;18.576;2023-09-30T01:56:34;16.33;;;11.30;;
70927;SDS011;58587;53.034;18.576;2023-09-30T01:58:59;15.93;;;11.17;;
70927;SDS011;58587;53.034;18.576;2023-09-30T02:01:25;17.80;;;11.40;;
70927;SDS011;58587;53.034;18.576;2023-09-30T02:03:50;14.00;;;10.73;;
70927;SDS011;58587;53.034;18.576;2023-09-30T02:06:15;16.20;;;10.93;;
70927;SDS011;58587;53.034;18.576;2023-09-30T02:08:40;16.63;;;11.37;;
70927;SDS011;58587;53.034;18.576;2023-09-30T02:11:07;16.02;;;10.90;;
70927;SDS011;58587;53.034;18.576;2023-09-30T02:13:35;15.87;;;11.10;;
70927;SDS011;58587;53.034;18.576;2023-09-30T02:16:01;15.68;;;10.90;;
70927;SDS011;58587;53.034;18.576;2023-09-30T02:18:26;18.48;;;11.10;;
70927;SDS011;58587;53.034;18.576;2023-09-30T02:20:52;16.83;;;11.37;;
70927;SDS011;58587;53.034;18.576;2023-09-30T02:23:18;16.38;;;11.40;;
70927;SDS011;58587;53.034;18.576;2023-09-30T02:25:44;15.75;;;10.77;;
70927;SDS011;58587;53.034;18.576;2023-09-30T02:28:09;21.40;;;11.67;;
70927;SDS011;58587;53.034;18.576;2023-09-30T02:30:34;16.30;;;11.30;;
70927;SDS011;58587;53.034;18.576;2023-09-30T02:33:00;17.17;;;11.50;;
70927;SDS011;58587;53.034;18.576;2023-09-30T02:35:26;16.27;;;11.27;;
70927;SDS011;58587;53.034;18.576;2023-09-30T02:37:52;14.67;;;10.83;;
70927;SDS011;58587;53.034;18.576;2023-09-30T02:40:17;18.02;;;10.60;;
70927;SDS011;58587;53.034;18.576;2023-09-30T02:42:43;14.80;;;10.80;;
70927;SDS011;58587;53.034;18.576;2023-09-30T02:45:09;15.15;;;10.52;;
70927;SDS011;58587;53.034;18.576;2023-09-30T02:47:35;13.27;;;10.10;;
70927;SDS011;58587;53.034;18.576;2023-09-30T02:50:01;15.73;;;10.43;;
70927;SDS011;58587;53.034;18.576;2023-09-30T02:52:27;17.45;;;10.15;;
70927;SDS011;58587;53.034;18.576;2023-09-30T02:54:54;13.65;;;9.90;;
70927;SDS011;58587;53.034;18.576;2023-09-30T02:57:20;15.10;;;9.77;;
70927;SDS011;58587;53.034;18.576;2023-09-30T02:59:46;21.05;;;10.63;;
70927;SDS011;58587;53.034;18.576;2023-09-30T03:02:12;17.58;;;10.30;;
70927;SDS011;58587;53.034;18.576;2023-09-30T03:04:37;14.67;;;10.00;;
70927;SDS011;58587;53.034;18.576;2023-09-30T03:07:03;14.27;;;10.10;;
70927;SDS011;58587;53.034;18.576;2023-09-30T03:09:28;16.53;;;10.57;;
70927;SDS011;58587;53.034;18.576;2023-09-30T03:11:53;15.93;;;10.60;;
70927;SDS011;58587;53.034;18.576;2023-09-30T03:14:21;17.42;;;10.68;;
70927;SDS011;58587;53.034;18.576;2023-09-30T03:16:46;16.15;;;10.57;;
70927;SDS011;58587;53.034;18.576;2023-09-30T03:19:12;16.03;;;10.50;;
70927;SDS011;58587;53.034;18.576;2023-09-30T03:21:37;17.03;;;10.80;;
70927;SDS011;58587;53.034;18.576;2023-09-30T03:24:03;18.27;;;10.40;;
70927;SDS011;58587;53.034;18.576;2023-09-30T03:26:29;13.82;;;10.55;;
70927;SDS011;58587;53.034;18.576;2023-09-30T03:28:55;15.52;;;10.32;;
70927;SDS011;58587;53.034;18.576;2023-09-30T03:31:21;15.80;;;9.40;;
70927;SDS011;58587;53.034;18.576;2023-09-30T03:33:47;15.18;;;10.02;;
70927;SDS011;58587;53.034;18.576;2023-09-30T03:36:13;15.30;;;10.27;;
70927;SDS011;58587;53.034;18.576;2023-09-30T03:38:39;15.90;;;10.90;;
70927;SDS011;58587;53.034;18.576;2023-09-30T03:41:06;15.80;;;10.68;;
70927;SDS011;58587;53.034;18.576;2023-09-30T03:43:33;15.00;;;9.88;;
70927;SDS011;58587;53.034;18.576;2023-09-30T03:46:01;13.95;;;9.85;;
70927;SDS011;58587;53.034;18.576;2023-09-30T03:48:27;16.50;;;10.60;;
70927;SDS011;58587;53.034;18.576;2023-09-30T03:50:52;14.70;;;10.43;;
70927;SDS011;58587;53.034;18.576;2023-09-30T03:53:18;15.20;;;10.65;;
70927;SDS011;58587;53.034;18.576;2023-09-30T03:55:44;15.85;;;10.57;;
70927;SDS011;58587;53.034;18.576;2023-09-30T03:58:10;15.30;;;11.33;;
70927;SDS011;58587;53.034;18.576;2023-09-30T04:00:37;14.20;;;10.00;;
70927;SDS011;58587;53.034;18.576;2023-09-30T04:03:03;15.47;;;11.00;;
70927;SDS011;58587;53.034;18.576;2023-09-30T04:05:28;16.88;;;10.45;;
70927;SDS011;58587;53.034;18.576;2023-09-30T04:07:54;14.57;;;10.60;;
70927;SDS011;58587;53.034;18.576;2023-09-30T04:10:22;14.15;;;9.95;;
70927;SDS011;58587;53.034;18.576;2023-09-30T04:12:48;17.67;;;10.50;;
70927;SDS011;58587;53.034;18.576;2023-09-30T04:15:13;12.90;;;10.43;;
70927;SDS011;58587;53.034;18.576;2023-09-30T04:17:39;13.67;;;10.03;;
70927;SDS011;58587;53.034;18.576;2023-09-30T04:20:08;17.20;;;11.10;;
70927;SDS011;58587;53.034;18.576;2023-09-30T04:22:36;14.55;;;9.50;;
70927;SDS011;58587;53.034;18.576;2023-09-30T04:25:02;14.13;;;10.07;;
70927;SDS011;58587;53.034;18.576;2023-09-30T04:27:34;17.43;;;10.20;;
70927;SDS011;58587;53.034;18.576;2023-09-30T04:29:59;15.02;;;10.05;;
70927;SDS011;58587;53.034;18.576;2023-09-30T04:32:24;14.57;;;9.83;;
70927;SDS011;58587;53.034;18.576;2023-09-30T04:34:52;15.05;;;10.18;;
70927;SDS011;58587;53.034;18.576;2023-09-30T04:37:17;13.37;;;9.73;;
70927;SDS011;58587;53.034;18.576;2023-09-30T04:39:43;15.43;;;9.43;;
70927;SDS011;58587;53.034;18.576;2023-09-30T04:42:09;14.07;;;8.90;;
70927;SDS011;58587;53.034;18.576;2023-09-30T04:44:36;13.32;;;9.05;;
70927;SDS011;58587;53.034;18.576;2023-09-30T04:47:02;14.10;;;9.15;;
70927;SDS011;58587;53.034;18.576;2023-09-30T04:49:29;11.80;;;9.00;;
70927;SDS011;58587;53.034;18.576;2023-09-30T04:51:55;12.38;;;8.38;;
70927;SDS011;58587;53.034;18.576;2023-09-30T04:54:21;10.40;;;6.77;;
70927;SDS011;58587;53.034;18.576;2023-09-30T04:56:46;9.87;;;5.20;;
70927;SDS011;58587;53.034;18.576;2023-09-30T04:59:12;7.67;;;4.83;;
70927;SDS011;58587;53.034;18.576;2023-09-30T05:01:37;7.43;;;4.70;;
70927;SDS011;58587;53.034;18.576;2023-09-30T05:04:02;8.40;;;4.80;;
70927;SDS011;58587;53.034;18.576;2023-09-30T05:06:28;7.05;;;4.47;;
70927;SDS011;58587;53.034;18.576;2023-09-30T05:08:54;8.37;;;4.77;;
70927;SDS011;58587;53.034;18.576;2023-09-30T05:11:20;11.43;;;5.40;;
70927;SDS011;58587;53.034;18.576;2023-09-30T05:13:45;7.77;;;4.93;;
70927;SDS011;58587;53.034;18.576;2023-09-30T05:16:11;6.60;;;4.63;;
70927;SDS011;58587;53.034;18.576;2023-09-30T05:18:37;6.05;;;3.30;;
70927;SDS011;58587;53.034;18.576;2023-09-30T05:21:03;5.87;;;3.23;;
70927;SDS011;58587;53.034;18.576;2023-09-30T05:23:28;7.07;;;3.00;;
70927;SDS011;58587;53.034;18.576;2023-09-30T05:25:53;5.20;;;2.27;;
70927;SDS011;58587;53.034;18.576;2023-09-30T05:28:22;4.57;;;2.20;;
70927;SDS011;58587;53.034;18.576;2023-09-30T05:30:47;7.00;;;1.90;;
70927;SDS011;58587;53.034;18.576;2023-09-30T05:33:13;3.67;;;1.70;;
70927;SDS011;58587;53.034;18.576;2023-09-30T05:35:40;5.97;;;1.80;;
70927;SDS011;58587;53.034;18.576;2023-09-30T05:38:06;3.47;;;1.25;;
70927;SDS011;58587;53.034;18.576;2023-09-30T05:40:32;4.18;;;2.00;;
70927;SDS011;58587;53.034;18.576;2023-09-30T05:42:58;3.05;;;1.00;;
70927;SDS011;58587;53.034;18.576;2023-09-30T05:45:24;3.20;;;1.00;;
70927;SDS011;58587;53.034;18.576;2023-09-30T05:47:54;2.10;;;0.90;;
70927;SDS011;58587;53.034;18.576;2023-09-30T05:50:21;2.30;;;0.80;;
70927;SDS011;58587;53.034;18.576;2023-09-30T05:52:51;3.33;;;1.23;;
70927;SDS011;58587;53.034;18.576;2023-09-30T05:55:17;4.03;;;1.40;;
70927;SDS011;58587;53.034;18.576;2023-09-30T05:57:49;3.10;;;0.80;;
70927;SDS011;58587;53.034;18.576;2023-09-30T06:00:15;2.93;;;0.80;;
70927;SDS011;58587;53.034;18.576;2023-09-30T06:02:46;4.32;;;0.90;;
70927;SDS011;58587;53.034;18.576;2023-09-30T06:05:12;2.42;;;0.70;;
70927;SDS011;58587;53.034;18.576;2023-09-30T06:07:38;1.90;;;0.80;;
70927;SDS011;58587;53.034;18.576;2023-09-30T06:10:03;4.05;;;1.00;;
70927;SDS011;58587;53.034;18.576;2023-09-30T06:12:29;4.80;;;1.00;;
70927;SDS011;58587;53.034;18.576;2023-09-30T06:14:54;4.00;;;1.00;;
70927;SDS011;58587;53.034;18.576;2023-09-30T06:17:19;2.90;;;0.83;;
70927;SDS011;58587;53.034;18.576;2023-09-30T06:19:47;2.60;;;1.00;;
70927;SDS011;58587;53.034;18.576;2023-09-30T06:22:15;2.70;;;1.05;;
70927;SDS011;58587;53.034;18.576;2023-09-30T06:24:40;2.73;;;1.00;;
70927;SDS011;58587;53.034;18.576;2023-09-30T06:27:06;6.05;;;1.10;;
70927;SDS011;58587;53.034;18.576;2023-09-30T06:29:32;5.10;;;1.33;;
70927;SDS011;58587;53.034;18.576;2023-09-30T06:31:58;4.80;;;1.20;;
70927;SDS011;58587;53.034;18.576;2023-09-30T06:34:24;5.87;;;1.23;;
70927;SDS011;58587;53.034;18.576;2023-09-30T06:36:49;6.13;;;1.23;;
70927;SDS011;58587;53.034;18.576;2023-09-30T06:39:14;7.20;;;1.60;;
70927;SDS011;58587;53.034;18.576;2023-09-30T06:41:39;7.80;;;1.30;;
70927;SDS011;58587;53.034;18.576;2023-09-30T06:44:05;8.07;;;1.77;;
70927;SDS011;58587;53.034;18.576;2023-09-30T06:46:30;6.07;;;1.30;;
70927;SDS011;58587;53.034;18.576;2023-09-30T06:48:56;7.53;;;1.30;;
70927;SDS011;58587;53.034;18.576;2023-09-30T06:51:21;6.00;;;1.37;;
70927;SDS011;58587;53.034;18.576;2023-09-30T06:53:46;8.83;;;1.63;;
70927;SDS011;58587;53.034;18.576;2023-09-30T06:56:12;4.73;;;1.30;;
70927;SDS011;58587;53.034;18.576;2023-09-30T06:58:38;6.55;;;1.60;;
70927;SDS011;58587;53.034;18.576;2023-09-30T07:01:03;6.78;;;1.70;;
70927;SDS011;58587;53.034;18.576;2023-09-30T07:03:29;6.87;;;1.50;;
70927;SDS011;58587;53.034;18.576;2023-09-30T07:05:55;4.73;;;1.27;;
70927;SDS011;58587;53.034;18.576;2023-09-30T07:08:21;6.95;;;1.40;;
70927;SDS011;58587;53.034;18.576;2023-09-30T07:10:47;6.18;;;1.52;;
70927;SDS011;58587;53.034;18.576;2023-09-30T07:13:15;5.00;;;1.40;;
70927;SDS011;58587;53.034;18.576;2023-09-30T07:15:41;5.95;;;1.40;;
70927;SDS011;58587;53.034;18.576;2023-09-30T07:18:06;5.73;;;1.40;;
70927;SDS011;58587;53.034;18.576;2023-09-30T07:20:32;9.15;;;1.90;;
70927;SDS011;58587;53.034;18.576;2023-09-30T07:23:01;7.70;;;1.93;;
70927;SDS011;58587;53.034;18.576;2023-09-30T07:25:28;5.72;;;1.63;;
70927;SDS011;58587;53.034;18.576;2023-09-30T07:27:56;4.53;;;1.30;;
70927;SDS011;58587;53.034;18.576;2023-09-30T07:30:22;8.50;;;1.80;;
70927;SDS011;58587;53.034;18.576;2023-09-30T07:32:48;9.80;;;1.53;;
70927;SDS011;58587;53.034;18.576;2023-09-30T07:35:13;8.93;;;1.50;;
70927;SDS011;58587;53.034;18.576;2023-09-30T07:37:40;8.95;;;1.80;;
70927;SDS011;58587;53.034;18.576;2023-09-30T07:40:06;7.07;;;1.60;;
70927;SDS011;58587;53.034;18.576;2023-09-30T07:42:32;7.53;;;1.97;;
70927;SDS011;58587;53.034;18.576;2023-09-30T07:44:58;7.20;;;2.00;;
70927;SDS011;58587;53.034;18.576;2023-09-30T07:47:23;4.80;;;1.20;;
70927;SDS011;58587;53.034;18.576;2023-09-30T07:49:49;7.13;;;1.30;;
70927;SDS011;58587;53.034;18.576;2023-09-30T07:52:15;8.77;;;1.95;;
70927;SDS011;58587;53.034;18.576;2023-09-30T07:54:40;8.00;;;1.57;;
70927;SDS011;58587;53.034;18.576;2023-09-30T07:57:05;4.97;;;1.30;;
70927;SDS011;58587;53.034;18.576;2023-09-30T07:59:31;7.63;;;1.60;;
70927;SDS011;58587;53.034;18.576;2023-09-30T08:01:58;7.20;;;1.83;;
70927;SDS011;58587;53.034;18.576;2023-09-30T08:04:23;5.55;;;1.30;;
70927;SDS011;58587;53.034;18.576;2023-09-30T08:06:49;4.97;;;1.60;;
70927;SDS011;58587;53.034;18.576;2023-09-30T08:09:16;6.00;;;1.50;;
70927;SDS011;58587;53.034;18.576;2023-09-30T08:11:43;8.20;;;1.65;;
70927;SDS011;58587;53.034;18.576;2023-09-30T08:14:10;4.88;;;1.40;;
70927;SDS011;58587;53.034;18.576;2023-09-30T08:16:35;8.53;;;1.43;;
70927;SDS011;58587;53.034;18.576;2023-09-30T08:19:02;7.93;;;1.35;;
70927;SDS011;58587;53.034;18.576;2023-09-30T08:21:28;11.68;;;1.80;;
70927;SDS011;58587;53.034;18.576;2023-09-30T08:23:53;8.33;;;1.57;;
70927;SDS011;58587;53.034;18.576;2023-09-30T08:26:19;7.50;;;1.47;;
70927;SDS011;58587;53.034;18.576;2023-09-30T08:28:44;10.60;;;1.80;;
70927;SDS011;58587;53.034;18.576;2023-09-30T08:31:10;9.50;;;1.70;;
70927;SDS011;58587;53.034;18.576;2023-09-30T08:33:35;9.97;;;1.77;;
70927;SDS011;58587;53.034;18.576;2023-09-30T08:36:06;7.97;;;1.55;;
70927;SDS011;58587;53.034;18.576;2023-09-30T08:38:32;9.00;;;1.77;;
70927;SDS011;58587;53.034;18.576;2023-09-30T08:41:01;7.40;;;2.00;;
70927;SDS011;58587;53.034;18.576;2023-09-30T08:43:27;5.80;;;1.58;;
70927;SDS011;58587;53.034;18.576;2023-09-30T08:45:55;9.00;;;1.60;;
70927;SDS011;58587;53.034;18.576;2023-09-30T08:48:28;8.77;;;1.60;;
70927;SDS011;58587;53.034;18.576;2023-09-30T08:50:55;6.97;;;1.70;;
70927;SDS011;58587;53.034;18.576;2023-09-30T08:53:22;11.00;;;1.95;;
70927;SDS011;58587;53.034;18.576;2023-09-30T08:55:49;8.35;;;1.80;;
70927;SDS011;58587;53.034;18.576;2023-09-30T08:58:18;8.27;;;1.85;;
70927;SDS011;58587;53.034;18.576;2023-09-30T09:00:44;8.90;;;2.23;;
70927;SDS011;58587;53.034;18.576;2023-09-30T09:03:10;8.82;;;1.90;;
70927;SDS011;58587;53.034;18.576;2023-09-30T09:05:36;8.73;;;1.90;;
70927;SDS011;58587;53.034;18.576;2023-09-30T09:08:01;6.73;;;1.60;;
70927;SDS011;58587;53.034;18.576;2023-09-30T09:10:27;10.87;;;2.13;;
70927;SDS011;58587;53.034;18.576;2023-09-30T09:12:56;7.97;;;1.63;;
70927;SDS011;58587;53.034;18.576;2023-09-30T09:15:26;6.90;;;1.83;;
70927;SDS011;58587;53.034;18.576;2023-09-30T09:17:53;9.45;;;1.70;;
70927;SDS011;58587;53.034;18.576;2023-09-30T09:20:20;8.80;;;1.75;;
70927;SDS011;58587;53.034;18.576;2023-09-30T09:22:47;7.65;;;1.83;;
70927;SDS011;58587;53.034;18.576;2023-09-30T09:25:15;11.63;;;2.10;;
70927;SDS011;58587;53.034;18.576;2023-09-30T09:27:41;10.02;;;2.15;;
70927;SDS011;58587;53.034;18.576;2023-09-30T09:30:14;7.57;;;1.65;;
70927;SDS011;58587;53.034;18.576;2023-09-30T09:35:27;8.43;;;2.05;;
70927;SDS011;58587;53.034;18.576;2023-09-30T09:37:57;16.90;;;2.42;;
70927;SDS011;58587;53.034;18.576;2023-09-30T09:40:25;10.57;;;2.60;;
70927;SDS011;58587;53.034;18.576;2023-09-30T09:42:51;7.13;;;2.15;;
70927;SDS011;58587;53.034;18.576;2023-09-30T09:45:20;7.13;;;2.10;;
70927;SDS011;58587;53.034;18.576;2023-09-30T09:47:48;7.22;;;2.00;;
70927;SDS011;58587;53.034;18.576;2023-09-30T09:50:13;7.15;;;1.73;;
70927;SDS011;58587;53.034;18.576;2023-09-30T09:52:40;8.13;;;1.80;;
70927;SDS011;58587;53.034;18.576;2023-09-30T09:55:07;6.40;;;1.77;;
70927;SDS011;58587;53.034;18.576;2023-09-30T09:57:35;7.00;;;1.38;;
70927;SDS011;58587;53.034;18.576;2023-09-30T10:00:01;7.53;;;1.80;;
70927;SDS011;58587;53.034;18.576;2023-09-30T10:02:30;8.32;;;2.63;;
70927;SDS011;58587;53.034;18.576;2023-09-30T10:04:56;9.07;;;1.90;;
70927;SDS011;58587;53.034;18.576;2023-09-30T10:07:22;7.78;;;1.92;;
70927;SDS011;58587;53.034;18.576;2023-09-30T10:09:52;8.82;;;1.95;;
70927;SDS011;58587;53.034;18.576;2023-09-30T10:12:18;9.10;;;1.80;;
70927;SDS011;58587;53.034;18.576;2023-09-30T10:14:46;7.05;;;1.80;;
70927;SDS011;58587;53.034;18.576;2023-09-30T10:17:11;11.00;;;1.97;;
70927;SDS011;58587;53.034;18.576;2023-09-30T10:19:38;7.00;;;1.57;;
70927;SDS011;58587;53.034;18.576;2023-09-30T10:22:29;6.30;;;2.03;;
70927;SDS011;58587;53.034;18.576;2023-09-30T10:24:55;8.53;;;2.40;;
70927;SDS011;58587;53.034;18.576;2023-09-30T10:30:06;7.28;;;1.73;;
70927;SDS011;58587;53.034;18.576;2023-09-30T10:37:45;10.00;;;2.23;;
70927;SDS011;58587;53.034;18.576;2023-09-30T10:40:27;10.65;;;2.63;;
70927;SDS011;58587;53.034;18.576;2023-09-30T10:42:54;7.72;;;2.42;;
70927;SDS011;58587;53.034;18.576;2023-09-30T10:51:00;8.40;;;2.10;;
70927;SDS011;58587;53.034;18.576;2023-09-30T10:53:52;8.00;;;2.00;;
70927;SDS011;58587;53.034;18.576;2023-09-30T10:56:22;7.93;;;2.22;;
70927;SDS011;58587;53.034;18.576;2023-09-30T11:01:16;9.02;;;2.63;;
70927;SDS011;58587;53.034;18.576;2023-09-30T11:03:45;12.77;;;2.40;;
70927;SDS011;58587;53.034;18.576;2023-09-30T11:06:14;9.23;;;2.15;;
70927;SDS011;58587;53.034;18.576;2023-09-30T11:08:55;9.73;;;2.10;;
70927;SDS011;58587;53.034;18.576;2023-09-30T11:11:32;10.82;;;2.55;;
70927;SDS011;58587;53.034;18.576;2023-09-30T11:16:56;9.03;;;2.57;;
70927;SDS011;58587;53.034;18.576;2023-09-30T11:19:25;8.75;;;2.60;;
70927;SDS011;58587;53.034;18.576;2023-09-30T11:21:52;9.07;;;2.80;;
70927;SDS011;58587;53.034;18.576;2023-09-30T11:24:23;15.77;;;2.38;;
70927;SDS011;58587;53.034;18.576;2023-09-30T11:26:52;6.57;;;2.03;;
70927;SDS011;58587;53.034;18.576;2023-09-30T11:29:20;6.67;;;2.33;;
70927;SDS011;58587;53.034;18.576;2023-09-30T11:31:49;6.97;;;2.30;;
70927;SDS011;58587;53.034;18.576;2023-09-30T11:34:16;8.18;;;2.20;;
70927;SDS011;58587;53.034;18.576;2023-09-30T11:36:48;9.60;;;2.20;;
70927;SDS011;58587;53.034;18.576;2023-09-30T11:39:22;5.43;;;1.80;;
70927;SDS011;58587;53.034;18.576;2023-09-30T11:41:49;6.90;;;2.20;;
70927;SDS011;58587;53.034;18.576;2023-09-30T11:44:15;10.73;;;2.35;;
70927;SDS011;58587;53.034;18.576;2023-09-30T11:46:54;7.28;;;1.80;;
70927;SDS011;58587;53.034;18.576;2023-09-30T11:49:31;5.87;;;1.60;;
70927;SDS011;58587;53.034;18.576;2023-09-30T11:52:00;8.25;;;1.83;;
70927;SDS011;58587;53.034;18.576;2023-09-30T11:54:33;6.43;;;1.70;;
70927;SDS011;58587;53.034;18.576;2023-09-30T11:57:13;9.75;;;1.95;;
70927;SDS011;58587;53.034;18.576;2023-09-30T11:59:51;9.68;;;2.10;;
70927;SDS011;58587;53.034;18.576;2023-09-30T12:02:20;8.27;;;2.00;;
70927;SDS011;58587;53.034;18.576;2023-09-30T12:04:46;7.40;;;2.10;;
70927;SDS011;58587;53.034;18.576;2023-09-30T12:07:14;6.10;;;1.45;;
70927;SDS011;58587;53.034;18.576;2023-09-30T12:09:40;8.40;;;2.03;;
70927;SDS011;58587;53.034;18.576;2023-09-30T12:12:06;6.30;;;1.70;;
70927;SDS011;58587;53.034;18.576;2023-09-30T12:14:36;7.63;;;1.80;;
70927;SDS011;58587;53.034;18.576;2023-09-30T12:17:10;10.95;;;2.40;;
70927;SDS011;58587;53.034;18.576;2023-09-30T12:19:39;8.38;;;2.13;;
70927;SDS011;58587;53.034;18.576;2023-09-30T12:22:05;5.83;;;1.70;;
70927;SDS011;58587;53.034;18.576;2023-09-30T12:24:31;6.43;;;1.92;;
70927;SDS011;58587;53.034;18.576;2023-09-30T12:26:58;5.57;;;1.90;;
70927;SDS011;58587;53.034;18.576;2023-09-30T12:29:23;8.85;;;2.05;;
70927;SDS011;58587;53.034;18.576;2023-09-30T12:31:49;6.40;;;2.03;;
70927;SDS011;58587;53.034;18.576;2023-09-30T12:34:16;7.53;;;2.20;;
70927;SDS011;58587;53.034;18.576;2023-09-30T12:36:42;6.80;;;1.70;;
70927;SDS011;58587;53.034;18.576;2023-09-30T12:39:08;7.18;;;2.08;;
70927;SDS011;58587;53.034;18.576;2023-09-30T12:41:38;7.75;;;1.77;;
70927;SDS011;58587;53.034;18.576;2023-09-30T12:44:05;8.30;;;1.58;;
70927;SDS011;58587;53.034;18.576;2023-09-30T12:46:31;8.05;;;1.67;;
70927;SDS011;58587;53.034;18.576;2023-09-30T12:48:59;6.23;;;1.67;;
70927;SDS011;58587;53.034;18.576;2023-09-30T12:51:25;8.30;;;2.03;;
70927;SDS011;58587;53.034;18.576;2023-09-30T12:53:50;6.23;;;1.80;;
70927;SDS011;58587;53.034;18.576;2023-09-30T12:56:16;6.27;;;1.50;;
70927;SDS011;58587;53.034;18.576;2023-09-30T12:58:41;9.17;;;1.97;;
70927;SDS011;58587;53.034;18.576;2023-09-30T13:01:06;6.93;;;1.50;;
70927;SDS011;58587;53.034;18.576;2023-09-30T13:03:32;6.50;;;1.33;;
70927;SDS011;58587;53.034;18.576;2023-09-30T13:05:58;8.73;;;1.63;;
70927;SDS011;58587;53.034;18.576;2023-09-30T13:08:23;6.65;;;1.65;;
70927;SDS011;58587;53.034;18.576;2023-09-30T13:10:48;6.00;;;1.83;;
70927;SDS011;58587;53.034;18.576;2023-09-30T13:13:15;6.80;;;2.10;;
70927;SDS011;58587;53.034;18.576;2023-09-30T13:15:41;5.87;;;1.70;;
70927;SDS011;58587;53.034;18.576;2023-09-30T13:18:06;6.53;;;1.43;;
70927;SDS011;58587;53.034;18.576;2023-09-30T13:20:32;6.38;;;1.75;;
70927;SDS011;58587;53.034;18.576;2023-09-30T13:22:57;6.33;;;1.90;;
70927;SDS011;58587;53.034;18.576;2023-09-30T13:25:22;6.30;;;1.60;;
70927;SDS011;58587;53.034;18.576;2023-09-30T13:27:48;4.53;;;1.80;;
70927;SDS011;58587;53.034;18.576;2023-09-30T13:30:13;6.73;;;2.13;;
70927;SDS011;58587;53.034;18.576;2023-09-30T13:32:39;5.07;;;1.75;;
70927;SDS011;58587;53.034;18.576;2023-09-30T13:35:05;6.77;;;1.90;;
70927;SDS011;58587;53.034;18.576;2023-09-30T13:37:31;7.85;;;1.90;;
70927;SDS011;58587;53.034;18.576;2023-09-30T13:40:02;7.70;;;1.80;;
70927;SDS011;58587;53.034;18.576;2023-09-30T13:42:29;6.28;;;1.88;;
70927;SDS011;58587;53.034;18.576;2023-09-30T13:44:55;6.30;;;2.40;;
70927;SDS011;58587;53.034;18.576;2023-09-30T13:47:22;6.68;;;1.90;;
70927;SDS011;58587;53.034;18.576;2023-09-30T13:49:48;6.28;;;2.00;;
70927;SDS011;58587;53.034;18.576;2023-09-30T13:52:14;7.63;;;2.03;;
70927;SDS011;58587;53.034;18.576;2023-09-30T13:54:40;6.17;;;1.90;;
70927;SDS011;58587;53.034;18.576;2023-09-30T13:57:05;7.70;;;2.20;;
70927;SDS011;58587;53.034;18.576;2023-09-30T13:59:33;5.73;;;2.23;;
70927;SDS011;58587;53.034;18.576;2023-09-30T14:02:00;5.47;;;2.40;;
70927;SDS011;58587;53.034;18.576;2023-09-30T14:04:25;6.17;;;2.47;;
70927;SDS011;58587;53.034;18.576;2023-09-30T14:06:50;5.77;;;2.30;;
70927;SDS011;58587;53.034;18.576;2023-09-30T14:09:16;7.87;;;2.40;;
70927;SDS011;58587;53.034;18.576;2023-09-30T14:11:41;7.85;;;2.08;;
70927;SDS011;58587;53.034;18.576;2023-09-30T14:14:09;7.05;;;2.45;;
70927;SDS011;58587;53.034;18.576;2023-09-30T14:16:34;6.97;;;2.60;;
70927;SDS011;58587;53.034;18.576;2023-09-30T14:19:00;7.75;;;2.65;;
70927;SDS011;58587;53.034;18.576;2023-09-30T14:21:26;7.23;;;2.60;;
70927;SDS011;58587;53.034;18.576;2023-09-30T14:23:51;6.30;;;2.50;;
70927;SDS011;58587;53.034;18.576;2023-09-30T14:26:16;6.60;;;2.25;;
70927;SDS011;58587;53.034;18.576;2023-09-30T14:28:42;8.50;;;2.40;;
70927;SDS011;58587;53.034;18.576;2023-09-30T14:31:07;7.03;;;2.00;;
70927;SDS011;58587;53.034;18.576;2023-09-30T14:33:32;7.93;;;2.30;;
70927;SDS011;58587;53.034;18.576;2023-09-30T14:35:59;5.53;;;1.88;;
70927;SDS011;58587;53.034;18.576;2023-09-30T14:38:24;7.20;;;2.00;;
70927;SDS011;58587;53.034;18.576;2023-09-30T14:40:50;5.85;;;1.88;;
70927;SDS011;58587;53.034;18.576;2023-09-30T14:43:16;8.33;;;2.03;;
70927;SDS011;58587;53.034;18.576;2023-09-30T14:45:42;6.47;;;1.70;;